Time;durP1;ratioP1;P1;durP2;ratioP2;P2;SDS_P1;SDS_P2;PMS_P1;PMS_P2;Temp;Humidity;BMP_temperature;BMP_pressure;BME280_temperature;BME280_humidity;BME280_pressure;Samples;Min_cycle;Max_cycle;Signal;HPM_P1;HPM_P2
2022/07/30 00:01:54;;;;;;;5.32;1.70;;;19.80;46.70;;;;;;613156;234;26803;-69
2022/07/30 00:04:23;;;;;;;2.95;1.87;;;19.70;47.00;;;;;;613061;235;26647;-68
2022/07/30 00:06:49;;;;;;;1.90;1.70;;;19.70;46.90;;;;;;613061;235;26639;-69
2022/07/30 00:09:16;;;;;;;2.20;1.70;;;19.70;47.00;;;;;;613111;235;26644;-69
2022/07/30 00:11:44;;;;;;;3.08;1.45;;;19.70;47.00;;;;;;612783;235;26968;-68
2022/07/30 00:14:11;;;;;;;7.05;1.85;;;19.70;47.50;;;;;;612751;235;26643;-67
2022/07/30 00:16:40;;;;;;;7.15;2.42;;;19.60;47.30;;;;;;606997;235;26957;-68
2022/07/30 00:19:07;;;;;;;4.60;2.03;;;19.60;47.10;;;;;;604140;236;26819;-68
2022/07/30 00:21:34;;;;;;;2.00;1.75;;;19.60;47.20;;;;;;605771;236;26576;-68
2022/07/30 00:24:02;;;;;;;3.28;1.87;;;19.50;47.70;;;;;;606489;235;26858;-68
2022/07/30 00:26:29;;;;;;;4.25;2.17;;;19.50;47.70;;;;;;606555;235;26575;-68
2022/07/30 00:28:58;;;;;;;2.65;1.92;;;19.50;47.70;;;;;;605713;236;26852;-67
2022/07/30 00:31:25;;;;;;;4.15;1.60;;;19.50;47.60;;;;;;604895;236;26589;-67
2022/07/30 00:33:52;;;;;;;3.37;1.87;;;19.50;47.90;;;;;;604107;234;26823;-67
2022/07/30 00:36:19;;;;;;;3.67;1.67;;;19.40;48.00;;;;;;605988;235;26641;-67
2022/07/30 00:38:47;;;;;;;2.70;1.60;;;19.40;47.80;;;;;;604103;236;26590;-68
2022/07/30 00:41:15;;;;;;;5.25;1.80;;;19.40;48.10;;;;;;604874;232;26614;-68
2022/07/30 00:43:42;;;;;;;2.22;1.75;;;19.40;48.10;;;;;;603843;236;26842;-68
2022/07/30 00:46:10;;;;;;;2.45;1.60;;;19.40;48.20;;;;;;606001;235;26552;-68
2022/07/30 00:48:37;;;;;;;2.53;1.55;;;19.30;48.10;;;;;;604889;236;26592;-68
2022/07/30 00:51:05;;;;;;;1.80;1.70;;;19.30;48.50;;;;;;604555;236;26834;-68
2022/07/30 00:53:32;;;;;;;3.55;1.65;;;19.30;48.30;;;;;;606772;235;26600;-68
2022/07/30 00:55:59;;;;;;;3.42;1.75;;;19.30;48.50;;;;;;605565;236;26811;-68
2022/07/30 00:58:27;;;;;;;6.05;1.80;;;19.30;48.40;;;;;;605843;235;26589;-68
2022/07/30 01:00:54;;;;;;;1.65;1.55;;;19.20;48.50;;;;;;605330;235;26917;-68
2022/07/30 01:03:21;;;;;;;3.78;2.10;;;19.20;48.50;;;;;;605095;235;26601;-68
2022/07/30 01:05:50;;;;;;;5.18;1.90;;;19.20;48.70;;;;;;608287;234;26554;-68
2022/07/30 01:08:17;;;;;;;2.00;1.87;;;19.10;48.80;;;;;;608662;234;26621;-68
2022/07/30 01:10:44;;;;;;;2.85;1.60;;;19.10;48.70;;;;;;607403;234;26624;-67
2022/07/30 01:13:11;;;;;;;2.75;1.80;;;19.10;48.70;;;;;;606929;234;26638;-67
2022/07/30 01:15:39;;;;;;;2.80;1.70;;;19.10;49.00;;;;;;604926;235;26838;-67
2022/07/30 01:18:06;;;;;;;1.87;1.40;;;19.10;48.90;;;;;;605285;235;26845;-67
2022/07/30 01:20:35;;;;;;;1.95;1.77;;;19.10;49.10;;;;;;607242;235;26592;-67
2022/07/30 01:23:16;;;;;;;2.25;1.75;;;19.10;49.40;;;;;;605702;234;26620;-67
2022/07/30 01:25:53;;;;;;;2.83;1.83;;;19.10;49.20;;;;;;605476;235;26582;-67
2022/07/30 01:28:20;;;;;;;4.32;1.65;;;19.00;49.20;;;;;;606678;235;26600;-67
2022/07/30 01:30:47;;;;;;;1.62;1.40;;;19.10;49.20;;;;;;607067;235;26826;-67
2022/07/30 01:33:15;;;;;;;2.12;1.60;;;19.10;49.30;;;;;;606068;235;26578;-67
2022/07/30 01:35:43;;;;;;;3.95;2.25;;;19.10;49.30;;;;;;605134;234;26554;-67
2022/07/30 01:38:11;;;;;;;2.55;1.98;;;19.00;49.40;;;;;;604577;236;26557;-67
2022/07/30 01:40:38;;;;;;;2.25;1.70;;;19.00;49.40;;;;;;605309;236;26550;-68
2022/07/30 01:43:06;;;;;;;1.95;1.83;;;19.00;49.40;;;;;;605089;235;26601;-68
2022/07/30 01:45:34;;;;;;;2.83;1.77;;;19.00;49.50;;;;;;603804;235;26606;-68
2022/07/30 01:48:01;;;;;;;2.75;1.80;;;18.90;49.40;;;;;;604832;235;26549;-68
2022/07/30 01:50:28;;;;;;;2.65;1.77;;;18.90;49.70;;;;;;606672;235;26868;-68
2022/07/30 01:52:55;;;;;;;2.70;1.58;;;18.90;49.70;;;;;;603521;236;26815;-68
2022/07/30 01:55:26;;;;;;;1.60;1.50;;;18.90;49.70;;;;;;605742;235;26561;-68
2022/07/30 01:57:53;;;;;;;2.50;1.60;;;18.90;49.80;;;;;;606529;235;26595;-68
2022/07/30 02:00:20;;;;;;;1.75;1.65;;;18.80;49.80;;;;;;606485;235;26930;-68
2022/07/30 02:02:47;;;;;;;2.20;1.70;;;18.90;49.90;;;;;;605947;235;26605;-68
2022/07/30 02:05:14;;;;;;;1.90;1.65;;;18.80;49.90;;;;;;604396;236;26839;-68
2022/07/30 02:07:43;;;;;;;1.65;1.52;;;18.80;49.80;;;;;;605413;234;26613;-68
2022/07/30 02:10:11;;;;;;;2.47;1.40;;;18.80;49.80;;;;;;607236;235;26848;-67
2022/07/30 02:12:41;;;;;;;2.92;1.85;;;18.80;50.10;;;;;;603032;235;26617;-67
2022/07/30 02:15:22;;;;;;;3.22;1.73;;;18.80;50.10;;;;;;604957;236;26588;-67
2022/07/30 02:17:49;;;;;;;1.90;1.70;;;18.80;50.10;;;;;;606245;233;26817;-67
2022/07/30 02:20:17;;;;;;;1.65;1.55;;;18.80;50.20;;;;;;605741;234;26642;-67
2022/07/30 02:22:44;;;;;;;1.70;1.60;;;18.80;50.10;;;;;;604591;235;27043;-67
2022/07/30 02:25:11;;;;;;;3.58;1.87;;;18.80;50.20;;;;;;606086;235;26658;-67
2022/07/30 02:27:38;;;;;;;2.30;1.70;;;18.80;50.80;;;;;;605981;235;26794;-67
2022/07/30 02:30:07;;;;;;;4.97;1.62;;;18.80;50.60;;;;;;605867;235;26613;-67
2022/07/30 02:32:35;;;;;;;2.20;1.67;;;18.80;50.60;;;;;;605800;235;26680;-67
2022/07/30 02:35:02;;;;;;;1.83;1.65;;;18.80;50.40;;;;;;605093;236;26960;-67
2022/07/30 02:37:29;;;;;;;1.85;1.60;;;18.70;50.40;;;;;;604815;236;26570;-67
2022/07/30 02:39:56;;;;;;;3.28;1.70;;;18.70;50.50;;;;;;604364;236;27013;-67
2022/07/30 02:42:24;;;;;;;1.67;1.50;;;18.70;50.50;;;;;;606528;234;26648;-67
2022/07/30 02:44:51;;;;;;;1.98;1.50;;;18.70;50.50;;;;;;606064;232;26919;-67
2022/07/30 02:47:18;;;;;;;2.53;1.40;;;18.70;50.70;;;;;;605229;235;26566;-67
2022/07/30 02:49:45;;;;;;;2.37;1.70;;;18.70;50.80;;;;;;605857;235;26533;-67
2022/07/30 02:52:14;;;;;;;1.50;1.40;;;18.60;50.80;;;;;;603324;233;26585;-70
2022/07/30 02:54:41;;;;;;;2.37;1.70;;;18.50;51.00;;;;;;604468;236;26562;-70
2022/07/30 02:57:10;;;;;;;3.85;2.17;;;18.50;51.10;;;;;;610249;235;26601;-70
2022/07/30 02:59:37;;;;;;;1.55;1.45;;;18.50;51.10;;;;;;604374;236;26798;-70
2022/07/30 03:02:04;;;;;;;2.58;1.50;;;18.60;51.10;;;;;;603127;238;26584;-70
2022/07/30 03:04:32;;;;;;;1.70;1.60;;;18.50;51.30;;;;;;605543;236;27296;-70
2022/07/30 03:06:59;;;;;;;2.17;1.50;;;18.50;51.30;;;;;;603627;236;27043;-70
2022/07/30 03:09:27;;;;;;;1.62;1.48;;;18.50;51.40;;;;;;607514;235;26584;-70
2022/07/30 03:11:54;;;;;;;1.70;1.58;;;18.50;51.40;;;;;;603498;235;26915;-70
2022/07/30 03:14:21;;;;;;;1.40;1.20;;;18.40;51.40;;;;;;607492;235;26662;-70
2022/07/30 03:16:48;;;;;;;2.25;1.58;;;18.40;51.50;;;;;;603860;236;27221;-71
2022/07/30 03:19:16;;;;;;;2.90;1.70;;;18.40;51.50;;;;;;604413;235;26555;-71
2022/07/30 03:21:43;;;;;;;1.85;1.75;;;18.40;51.70;;;;;;606506;235;26602;-71
2022/07/30 03:24:11;;;;;;;3.00;1.37;;;18.40;51.80;;;;;;604612;235;26597;-71
2022/07/30 03:26:38;;;;;;;2.15;1.50;;;18.40;51.80;;;;;;604907;235;26600;-71
2022/07/30 03:29:06;;;;;;;2.60;1.40;;;18.40;51.70;;;;;;607922;234;26556;-71
2022/07/30 03:31:33;;;;;;;1.48;1.37;;;18.40;51.80;;;;;;606590;234;26871;-71
2022/07/30 03:34:00;;;;;;;1.70;1.60;;;18.40;51.90;;;;;;606842;234;26641;-71
2022/07/30 03:36:27;;;;;;;2.70;1.37;;;18.40;52.00;;;;;;606576;235;26842;-71
2022/07/30 03:38:55;;;;;;;2.85;1.65;;;18.40;52.00;;;;;;604749;235;26669;-71
2022/07/30 03:41:22;;;;;;;1.98;1.73;;;18.40;51.90;;;;;;605258;235;26832;-70
2022/07/30 03:43:49;;;;;;;1.85;1.23;;;18.40;51.90;;;;;;603667;238;26646;-71
2022/07/30 03:46:16;;;;;;;3.25;1.55;;;18.40;51.90;;;;;;603371;237;26790;-70
2022/07/30 03:48:44;;;;;;;1.52;1.42;;;18.40;52.10;;;;;;603576;237;26583;-71
2022/07/30 03:51:12;;;;;;;1.50;1.40;;;18.40;52.10;;;;;;605602;235;26580;-71
2022/07/30 03:53:40;;;;;;;1.83;1.40;;;18.40;52.10;;;;;;605102;235;26599;-71
2022/07/30 03:56:08;;;;;;;1.92;1.35;;;18.40;52.20;;;;;;604852;236;26573;-71
2022/07/30 03:58:36;;;;;;;1.75;1.65;;;18.40;52.40;;;;;;604444;236;26585;-71
2022/07/30 04:01:03;;;;;;;1.50;1.40;;;18.40;52.00;;;;;;607606;235;26654;-71
2022/07/30 04:03:31;;;;;;;1.40;1.30;;;18.50;52.00;;;;;;604047;236;26600;-71
2022/07/30 04:05:58;;;;;;;3.37;1.62;;;18.50;51.90;;;;;;604901;235;26589;-71
2022/07/30 04:08:25;;;;;;;1.75;1.50;;;18.60;52.00;;;;;;606918;235;27171;-70
2022/07/30 04:10:53;;;;;;;1.20;1.10;;;18.60;51.90;;;;;;603820;236;26587;-70
2022/07/30 04:13:21;;;;;;;2.55;1.30;;;18.60;51.70;;;;;;607076;235;26607;-71
2022/07/30 04:15:53;;;;;;;2.08;1.30;;;18.60;51.80;;;;;;603174;238;26829;-71
2022/07/30 04:18:21;;;;;;;2.33;1.52;;;18.60;52.00;;;;;;603279;236;26577;-71
2022/07/30 04:20:48;;;;;;;1.83;1.12;;;18.60;51.80;;;;;;603777;236;26594;-71
2022/07/30 04:23:16;;;;;;;2.67;1.60;;;18.60;51.90;;;;;;604497;236;26625;-70
2022/07/30 04:25:43;;;;;;;1.50;1.40;;;18.70;52.00;;;;;;607455;235;26854;-71
2022/07/30 04:28:10;;;;;;;1.85;1.37;;;18.70;51.80;;;;;;605658;235;26596;-70
2022/07/30 04:30:37;;;;;;;1.35;1.20;;;18.70;51.70;;;;;;604111;236;26803;-71
2022/07/30 04:33:04;;;;;;;2.17;1.20;;;18.80;51.80;;;;;;606555;232;26599;-70
2022/07/30 04:35:32;;;;;;;1.40;1.30;;;18.80;51.80;;;;;;604314;236;26939;-70
2022/07/30 04:38:01;;;;;;;3.80;1.67;;;18.80;51.80;;;;;;603905;236;26586;-71
2022/07/30 04:40:26;;;;;;;3.10;1.42;;;18.80;51.90;;;;;;607075;234;27234;-71
2022/07/30 04:42:53;;;;;;;1.67;1.20;;;18.80;51.80;;;;;;607305;234;26648;-71
2022/07/30 04:45:21;;;;;;;1.27;1.17;;;18.90;51.80;;;;;;604661;235;26937;-70
2022/07/30 04:47:48;;;;;;;1.10;1.10;;;18.90;51.80;;;;;;604535;235;26596;-71
2022/07/30 04:50:15;;;;;;;2.83;1.45;;;19.00;51.90;;;;;;604614;235;26874;-71
2022/07/30 04:52:42;;;;;;;2.90;1.50;;;19.00;51.80;;;;;;606477;235;26616;-71
2022/07/30 04:55:09;;;;;;;2.12;1.30;;;19.00;51.60;;;;;;605908;235;26630;-71
2022/07/30 04:57:38;;;;;;;1.25;1.15;;;19.10;51.60;;;;;;606621;235;26666;-71
2022/07/30 05:00:07;;;;;;;1.98;1.37;;;19.20;51.40;;;;;;603443;236;26589;-71
2022/07/30 05:02:34;;;;;;;1.23;1.20;;;19.20;51.40;;;;;;607711;235;26620;-71
2022/07/30 05:05:01;;;;;;;1.40;1.30;;;19.30;51.50;;;;;;604268;236;26833;-71
2022/07/30 05:07:29;;;;;;;1.48;1.33;;;19.30;51.40;;;;;;603761;236;26584;-71
2022/07/30 05:09:56;;;;;;;1.40;1.30;;;19.40;51.50;;;;;;606936;235;26841;-70
2022/07/30 05:12:32;;;;;;;1.00;1.00;;;19.50;51.30;;;;;;603448;236;26610;-70
2022/07/30 05:15:00;;;;;;;1.75;1.25;;;19.60;50.90;;;;;;605946;235;26588;-70
2022/07/30 05:17:28;;;;;;;2.47;1.30;;;19.60;50.90;;;;;;607183;235;26642;-70
2022/07/30 05:19:56;;;;;;;2.25;1.40;;;19.60;50.70;;;;;;604188;236;26594;-70
2022/07/30 05:22:26;;;;;;;1.52;1.42;;;19.60;50.70;;;;;;605428;235;26650;-71
2022/07/30 05:24:51;;;;;;;1.37;0.88;;;19.70;50.90;;;;;;606139;235;26613;-70
2022/07/30 05:27:19;;;;;;;1.40;1.30;;;19.80;50.70;;;;;;603689;235;26559;-70
2022/07/30 05:29:46;;;;;;;1.58;1.48;;;19.90;50.80;;;;;;604471;236;26560;-70
2022/07/30 05:32:13;;;;;;;1.37;1.30;;;19.90;50.70;;;;;;605155;236;26549;-71
2022/07/30 05:34:41;;;;;;;1.35;1.10;;;19.90;50.40;;;;;;604566;236;26565;-70
2022/07/30 05:37:09;;;;;;;1.50;1.30;;;19.90;50.60;;;;;;606186;235;26572;-70
2022/07/30 05:39:36;;;;;;;2.33;1.10;;;19.90;50.60;;;;;;607903;235;26598;-70
2022/07/30 05:42:03;;;;;;;1.40;1.20;;;20.00;50.70;;;;;;603669;238;26555;-70
2022/07/30 05:44:30;;;;;;;1.33;1.25;;;20.10;50.30;;;;;;607754;235;26611;-70
2022/07/30 05:46:58;;;;;;;0.95;0.95;;;20.00;50.50;;;;;;604395;236;26816;-71
2022/07/30 05:49:25;;;;;;;1.00;0.82;;;20.10;50.50;;;;;;605401;235;26542;-70
2022/07/30 05:51:52;;;;;;;1.20;1.10;;;20.00;50.40;;;;;;607908;233;26823;-70
2022/07/30 05:54:19;;;;;;;1.10;1.10;;;20.10;50.60;;;;;;605342;235;26654;-71
2022/07/30 05:56:46;;;;;;;1.20;1.10;;;20.10;50.40;;;;;;606104;234;26581;-71
2022/07/30 05:59:14;;;;;;;2.53;1.15;;;20.00;50.60;;;;;;607000;234;26600;-71
2022/07/30 06:01:43;;;;;;;1.30;1.17;;;20.00;51.00;;;;;;606989;235;26607;-71
2022/07/30 06:04:10;;;;;;;1.17;0.95;;;19.90;50.80;;;;;;604416;235;26645;-71
2022/07/30 06:06:38;;;;;;;1.45;1.30;;;19.90;51.20;;;;;;606650;235;26600;-71
2022/07/30 06:09:05;;;;;;;2.20;1.30;;;19.90;50.90;;;;;;606168;235;26881;-71
2022/07/30 06:11:33;;;;;;;1.40;1.30;;;19.90;51.00;;;;;;604000;236;26581;-71
2022/07/30 06:14:00;;;;;;;1.67;1.05;;;19.80;51.20;;;;;;604925;236;26843;-71
2022/07/30 06:16:27;;;;;;;1.67;1.20;;;19.80;51.30;;;;;;602321;237;26593;-73
2022/07/30 06:18:56;;;;;;;1.40;1.27;;;20.00;51.20;;;;;;601933;236;26590;-73
2022/07/30 06:21:24;;;;;;;2.85;1.33;;;20.00;51.10;;;;;;601908;238;26819;-73
2022/07/30 06:23:51;;;;;;;2.35;1.27;;;19.90;51.00;;;;;;601964;237;26923;-73
2022/07/30 06:26:18;;;;;;;2.58;1.23;;;20.00;51.10;;;;;;601854;238;26606;-74
2022/07/30 06:28:46;;;;;;;2.45;1.37;;;20.20;50.90;;;;;;601715;239;26846;-73
2022/07/30 06:31:13;;;;;;;1.55;1.30;;;20.20;50.90;;;;;;601645;239;26881;-73
2022/07/30 06:33:41;;;;;;;1.33;1.23;;;20.30;50.80;;;;;;601635;239;26605;-73
2022/07/30 06:36:08;;;;;;;2.70;1.40;;;20.30;50.60;;;;;;601597;239;26854;-73
2022/07/30 06:38:35;;;;;;;4.90;1.45;;;20.40;50.70;;;;;;601696;238;26575;-73
2022/07/30 06:41:02;;;;;;;1.77;1.02;;;20.40;50.90;;;;;;601610;235;27242;-73
2022/07/30 06:43:30;;;;;;;2.33;1.45;;;20.50;50.80;;;;;;601655;237;26583;-73
2022/07/30 06:45:58;;;;;;;1.80;1.10;;;20.40;50.80;;;;;;601685;232;26581;-74
2022/07/30 06:48:26;;;;;;;2.00;1.00;;;20.50;51.00;;;;;;601672;238;26606;-75
2022/07/30 06:50:53;;;;;;;1.45;1.20;;;20.40;50.90;;;;;;601684;235;26581;-74
2022/07/30 06:53:20;;;;;;;1.37;1.17;;;20.60;50.80;;;;;;601618;237;27276;-74
2022/07/30 06:55:49;;;;;;;2.25;1.00;;;20.70;50.70;;;;;;601729;237;26600;-74
2022/07/30 06:58:15;;;;;;;2.97;1.40;;;20.70;50.70;;;;;;603608;236;26850;-75
2022/07/30 07:00:43;;;;;;;5.47;1.35;;;20.70;50.60;;;;;;603366;238;26557;-74
2022/07/30 07:03:09;;;;;;;1.95;1.10;;;20.80;50.90;;;;;;605863;235;26842;-73
2022/07/30 07:05:37;;;;;;;1.95;1.52;;;20.90;50.40;;;;;;605333;235;26602;-74
2022/07/30 07:08:04;;;;;;;1.35;1.00;;;20.80;50.60;;;;;;610751;234;26841;-73
2022/07/30 07:10:31;;;;;;;2.30;1.30;;;20.80;50.80;;;;;;606578;235;26589;-73
2022/07/30 07:12:59;;;;;;;2.15;1.10;;;20.90;50.60;;;;;;604733;235;26947;-73
2022/07/30 07:15:26;;;;;;;1.20;1.20;;;20.90;50.70;;;;;;604788;235;26935;-73
2022/07/30 07:17:53;;;;;;;1.50;1.40;;;20.90;50.80;;;;;;605210;235;26627;-73
2022/07/30 07:20:21;;;;;;;1.35;1.23;;;21.00;50.90;;;;;;604199;236;27032;-73
2022/07/30 07:22:48;;;;;;;2.05;1.00;;;21.10;50.50;;;;;;603276;237;26562;-73
2022/07/30 07:25:15;;;;;;;1.87;1.25;;;21.10;50.40;;;;;;606071;235;26852;-72
2022/07/30 07:27:42;;;;;;;1.50;1.40;;;21.20;50.50;;;;;;602027;235;26585;-72
2022/07/30 07:30:10;;;;;;;1.30;1.12;;;21.30;50.60;;;;;;606515;235;26837;-71
2022/07/30 07:32:37;;;;;;;6.80;1.20;;;21.30;50.40;;;;;;606330;235;26614;-71
2022/07/30 07:35:06;;;;;;;1.15;1.10;;;21.30;50.60;;;;;;605463;236;26923;-72
2022/07/30 07:37:33;;;;;;;1.40;1.08;;;21.20;50.60;;;;;;604913;237;26589;-72
2022/07/30 07:40:01;;;;;;;1.10;1.10;;;21.10;51.10;;;;;;608504;236;26725;-72
2022/07/30 07:42:28;;;;;;;1.40;1.10;;;21.20;51.20;;;;;;604846;236;26590;-72
2022/07/30 07:44:56;;;;;;;2.08;0.95;;;21.30;51.10;;;;;;603848;236;26597;-72
2022/07/30 07:47:24;;;;;;;1.75;1.30;;;21.40;50.80;;;;;;603695;236;26585;-72
2022/07/30 07:49:54;;;;;;;1.25;1.15;;;21.40;50.70;;;;;;603668;237;26571;-72
2022/07/30 07:52:22;;;;;;;2.50;1.00;;;21.50;50.70;;;;;;601940;235;26613;-72
2022/07/30 07:54:50;;;;;;;1.17;1.08;;;21.70;50.70;;;;;;605858;236;26587;-72
2022/07/30 07:57:18;;;;;;;3.20;1.20;;;21.70;50.30;;;;;;611013;235;26638;-72
2022/07/30 07:59:46;;;;;;;2.33;1.40;;;21.70;50.10;;;;;;605778;235;26648;-72
2022/07/30 08:02:14;;;;;;;2.15;1.58;;;21.90;50.20;;;;;;604112;237;26601;-71
2022/07/30 08:04:42;;;;;;;4.53;1.27;;;22.00;49.80;;;;;;604211;237;26822;-72
2022/07/30 08:07:10;;;;;;;1.12;1.00;;;22.00;49.80;;;;;;601627;239;26677;-71
2022/07/30 08:09:37;;;;;;;0.80;0.80;;;22.20;49.80;;;;;;603341;237;26842;-72
2022/07/30 08:12:05;;;;;;;1.48;1.30;;;22.40;49.90;;;;;;608608;235;26601;-72
2022/07/30 08:14:32;;;;;;;3.33;1.17;;;22.50;49.50;;;;;;607235;234;26844;-72
2022/07/30 08:16:59;;;;;;;0.90;0.90;;;22.70;49.10;;;;;;608629;234;26625;-73
2022/07/30 08:19:26;;;;;;;1.67;1.10;;;22.70;49.00;;;;;;608340;234;26864;-72
2022/07/30 08:21:54;;;;;;;1.05;1.00;;;22.70;49.10;;;;;;606911;235;26651;-73
2022/07/30 08:24:22;;;;;;;1.12;1.00;;;22.70;49.00;;;;;;604924;236;26918;-72
2022/07/30 08:26:49;;;;;;;2.65;1.20;;;22.80;48.80;;;;;;602934;237;26646;-72
2022/07/30 08:29:17;;;;;;;2.00;0.95;;;22.90;48.50;;;;;;603672;235;26952;-73
2022/07/30 08:31:44;;;;;;;1.33;1.23;;;22.90;48.50;;;;;;603920;238;27312;-72
2022/07/30 08:34:12;;;;;;;8.75;2.30;;;23.10;48.70;;;;;;602503;237;26614;-72
2022/07/30 08:36:38;;;;;;;7.82;2.53;;;23.30;48.40;;;;;;604895;238;27149;-72
2022/07/30 08:39:06;;;;;;;3.15;1.98;;;23.30;48.10;;;;;;603944;238;26594;-72
2022/07/30 08:41:33;;;;;;;4.10;2.08;;;23.40;48.00;;;;;;601901;239;26865;-71
2022/07/30 08:44:00;;;;;;;1.25;1.15;;;23.50;48.50;;;;;;607934;236;26591;-71
2022/07/30 08:46:27;;;;;;;4.37;2.00;;;23.60;47.70;;;;;;605557;235;26866;-71
2022/07/30 08:48:54;;;;;;;9.60;3.05;;;23.70;47.70;;;;;;603603;238;26607;-76
2022/07/30 08:51:22;;;;;;;9.05;3.08;;;24.00;47.70;;;;;;603350;238;26841;-74
2022/07/30 08:53:49;;;;;;;17.77;5.68;;;24.00;47.50;;;;;;601560;238;26606;-78
2022/07/30 08:56:16;;;;;;;21.05;5.72;;;23.90;47.40;;;;;;604173;238;26824;-74
2022/07/30 08:58:43;;;;;;;27.15;7.65;;;23.80;47.50;;;;;;603084;236;26592;-72
2022/07/30 09:01:10;;;;;;;8.48;3.60;;;23.90;47.60;;;;;;609949;236;26848;-72
2022/07/30 09:03:38;;;;;;;19.08;5.47;;;24.00;47.70;;;;;;605254;236;26610;-72
2022/07/30 09:06:06;;;;;;;15.20;4.68;;;24.10;47.40;;;;;;607856;236;27444;-75
2022/07/30 09:08:34;;;;;;;9.82;3.70;;;24.10;47.40;;;;;;605559;236;27011;-75
2022/07/30 09:11:01;;;;;;;16.73;5.15;;;24.20;47.30;;;;;;608264;232;26632;-73
2022/07/30 09:13:29;;;;;;;15.15;4.70;;;24.10;47.50;;;;;;603072;237;26848;-71
2022/07/30 09:15:56;;;;;;;7.03;2.70;;;24.30;47.30;;;;;;604226;236;26583;-68
2022/07/30 09:18:30;;;;;;;8.63;2.67;;;24.20;47.50;;;;;;602176;237;27109;-68
2022/07/30 09:20:59;;;;;;;14.13;3.67;;;24.50;47.30;;;;;;603781;237;26619;-69
2022/07/30 09:23:26;;;;;;;9.98;3.47;;;24.70;46.80;;;;;;608192;236;26820;-69
2022/07/30 09:25:55;;;;;;;8.23;2.37;;;24.70;47.00;;;;;;605379;236;26588;-68
2022/07/30 09:28:29;;;;;;;5.47;2.05;;;24.60;46.80;;;;;;609942;235;26592;-68
2022/07/30 09:30:57;;;;;;;10.02;2.70;;;24.60;47.50;;;;;;607933;235;26617;-68
2022/07/30 09:33:32;;;;;;;8.52;2.85;;;24.70;47.20;;;;;;603927;237;26588;-68
2022/07/30 09:36:00;;;;;;;3.33;1.45;;;24.60;46.70;;;;;;605372;238;26652;-68
2022/07/30 09:38:26;;;;;;;2.70;1.62;;;24.50;47.10;;;;;;602870;236;26595;-67
2022/07/30 09:40:54;;;;;;;4.32;1.70;;;24.60;47.00;;;;;;604690;235;26607;-65
2022/07/30 09:43:21;;;;;;;4.50;2.10;;;24.60;47.00;;;;;;606674;235;26868;-67
2022/07/30 09:45:59;;;;;;;1.92;1.42;;;24.80;46.60;;;;;;601959;238;26581;-67
2022/07/30 09:48:24;;;;;;;1.37;1.27;;;24.70;46.70;;;;;;607646;236;26642;-68
2022/07/30 09:50:51;;;;;;;2.72;1.80;;;24.70;46.80;;;;;;608315;236;26826;-67
2022/07/30 09:53:23;;;;;;;3.03;1.70;;;24.50;46.90;;;;;;601829;238;26598;-67
2022/07/30 09:55:50;;;;;;;2.58;1.60;;;24.40;46.80;;;;;;602999;235;26819;-67
2022/07/30 09:58:18;;;;;;;3.42;2.00;;;24.40;47.00;;;;;;610747;235;26639;-68
2022/07/30 10:00:45;;;;;;;2.10;1.30;;;24.50;47.00;;;;;;602889;235;26822;-67
2022/07/30 10:03:17;;;;;;;3.12;1.75;;;24.60;47.10;;;;;;603623;237;26581;-67
2022/07/30 10:05:52;;;;;;;4.30;1.70;;;24.70;46.90;;;;;;607871;235;26666;-70
2022/07/30 10:08:20;;;;;;;1.48;1.37;;;24.60;47.20;;;;;;604370;235;26640;-69
2022/07/30 10:10:48;;;;;;;4.22;1.55;;;24.70;46.60;;;;;;605549;235;26822;-66
2022/07/30 10:13:14;;;;;;;1.08;1.00;;;24.90;46.70;;;;;;609913;236;26865;-67
2022/07/30 10:15:41;;;;;;;1.12;1.08;;;25.10;46.70;;;;;;607115;236;26626;-69
2022/07/30 10:18:08;;;;;;;1.52;1.42;;;25.10;46.60;;;;;;603293;232;26813;-69
2022/07/30 10:20:35;;;;;;;1.60;1.20;;;25.30;46.20;;;;;;608927;236;26631;-69
2022/07/30 10:23:03;;;;;;;1.33;1.20;;;25.60;46.00;;;;;;604234;235;27253;-68
2022/07/30 10:25:30;;;;;;;2.30;1.45;;;25.70;45.70;;;;;;602998;237;26567;-68
2022/07/30 10:27:57;;;;;;;3.87;1.58;;;25.80;45.90;;;;;;607214;236;26906;-66
2022/07/30 10:30:24;;;;;;;1.92;1.20;;;25.80;45.70;;;;;;607688;235;26645;-67
2022/07/30 10:32:51;;;;;;;2.08;1.20;;;25.80;45.70;;;;;;608801;236;26934;-70
2022/07/30 10:35:19;;;;;;;1.37;1.10;;;25.90;45.70;;;;;;606842;235;26591;-68
2022/07/30 10:37:46;;;;;;;4.25;1.33;;;25.90;45.20;;;;;;611321;233;26858;-65
2022/07/30 10:40:19;;;;;;;2.37;1.20;;;26.10;45.00;;;;;;607947;235;26612;-64
2022/07/30 10:43:04;;;;;;;2.35;1.12;;;26.10;44.90;;;;;;611053;233;26617;-64
2022/07/30 10:45:53;;;;;;;2.60;1.40;;;26.10;45.10;;;;;;603295;234;26878;-65
2022/07/30 10:48:20;;;;;;;1.87;1.45;;;26.10;45.20;;;;;;600000;234;26865;-65
2022/07/30 10:50:48;;;;;;;4.50;1.77;;;26.30;44.50;;;;;;603920;237;26669;-71
2022/07/30 10:53:15;;;;;;;1.58;1.02;;;26.50;44.30;;;;;;602940;234;26864;-64
2022/07/30 10:55:42;;;;;;;1.20;0.95;;;26.60;43.90;;;;;;604703;236;26575;-68
2022/07/30 10:58:11;;;;;;;2.35;1.02;;;26.60;43.70;;;;;;603081;235;26798;-67
2022/07/30 11:00:57;;;;;;;2.35;1.50;;;26.60;43.70;;;;;;609083;235;27038;-68
2022/07/30 11:03:25;;;;;;;3.85;1.20;;;26.40;43.50;;;;;;603322;235;26601;-68
2022/07/30 11:05:51;;;;;;;1.20;1.10;;;26.40;43.50;;;;;;606045;235;26836;-67
2022/07/30 11:08:27;;;;;;;1.10;1.10;;;26.40;43.60;;;;;;604817;232;26608;-67
2022/07/30 11:10:55;;;;;;;1.00;1.00;;;26.60;44.20;;;;;;604169;235;26574;-70
2022/07/30 11:13:43;;;;;;;7.85;1.73;;;26.70;43.60;;;;;;606505;236;26633;-66
2022/07/30 11:16:11;;;;;;;1.50;1.25;;;26.80;43.30;;;;;;604859;234;26613;-66
2022/07/30 11:18:38;;;;;;;7.35;1.35;;;27.00;42.80;;;;;;605964;235;26841;-66
2022/07/30 11:21:12;;;;;;;1.17;1.10;;;27.00;42.90;;;;;;602969;235;26629;-66
2022/07/30 11:23:40;;;;;;;4.60;1.23;;;27.00;42.90;;;;;;601369;238;26611;-66
2022/07/30 11:26:08;;;;;;;2.83;1.30;;;27.00;42.40;;;;;;601286;239;26589;-66
2022/07/30 11:28:38;;;;;;;2.35;1.30;;;26.90;41.70;;;;;;601537;232;26633;-66
2022/07/30 11:31:05;;;;;;;2.95;1.23;;;26.90;41.70;;;;;;601418;232;26585;-66
2022/07/30 11:33:32;;;;;;;1.10;1.02;;;26.90;42.00;;;;;;599076;239;26586;-66
2022/07/30 11:36:05;;;;;;;1.58;1.10;;;27.10;42.20;;;;;;601784;237;26582;-66
2022/07/30 11:38:45;;;;;;;1.98;1.25;;;27.20;41.10;;;;;;601736;238;26553;-66
2022/07/30 11:41:13;;;;;;;1.20;1.20;;;27.30;41.30;;;;;;601787;239;26554;-66
2022/07/30 11:43:41;;;;;;;1.27;1.17;;;27.30;41.20;;;;;;601742;237;26565;-66
2022/07/30 11:46:10;;;;;;;1.77;1.10;;;27.40;41.30;;;;;;601762;239;26586;-66
2022/07/30 11:48:38;;;;;;;1.52;1.30;;;27.40;41.30;;;;;;602581;237;26583;-66
2022/07/30 11:51:06;;;;;;;0.80;0.80;;;27.50;41.00;;;;;;602866;238;26629;-66
2022/07/30 11:53:33;;;;;;;1.58;1.33;;;27.50;40.90;;;;;;602668;239;26633;-66
2022/07/30 11:56:00;;;;;;;3.37;1.00;;;27.60;41.10;;;;;;602589;239;26614;-66
2022/07/30 11:58:30;;;;;;;3.05;1.23;;;27.70;40.60;;;;;;602367;239;26948;-67
2022/07/30 12:00:59;;;;;;;1.23;1.10;;;27.60;40.70;;;;;;602137;239;26636;-67
2022/07/30 12:03:26;;;;;;;2.05;1.30;;;27.60;40.70;;;;;;602212;239;26950;-67
2022/07/30 12:05:54;;;;;;;4.50;1.50;;;27.90;40.60;;;;;;602213;239;26598;-67
2022/07/30 12:08:21;;;;;;;1.58;1.35;;;27.90;40.60;;;;;;601901;239;26574;-67
2022/07/30 12:10:58;;;;;;;1.40;1.10;;;28.10;39.90;;;;;;601888;239;26582;-67
2022/07/30 12:13:26;;;;;;;2.12;1.30;;;28.20;39.80;;;;;;601890;239;26854;-66
2022/07/30 12:15:53;;;;;;;2.10;1.45;;;28.20;39.80;;;;;;601943;239;26997;-70
2022/07/30 12:18:27;;;;;;;2.17;1.30;;;28.50;40.00;;;;;;601971;239;26585;-70
2022/07/30 12:20:57;;;;;;;1.87;1.30;;;28.60;39.30;;;;;;601343;239;26835;-69
2022/07/30 12:23:24;;;;;;;12.15;1.58;;;28.50;38.80;;;;;;606693;235;26635;-69
2022/07/30 12:25:51;;;;;;;3.62;1.40;;;28.40;38.60;;;;;;601640;239;26583;-69
2022/07/30 12:28:19;;;;;;;2.15;1.30;;;28.50;38.90;;;;;;609461;235;26646;-69
2022/07/30 12:30:47;;;;;;;4.65;1.42;;;28.60;38.90;;;;;;604223;235;26598;-69
2022/07/30 12:33:14;;;;;;;2.62;1.10;;;28.60;38.60;;;;;;603730;235;26611;-68
2022/07/30 12:35:42;;;;;;;1.23;1.23;;;28.80;38.00;;;;;;605441;236;26875;-67
2022/07/30 12:38:09;;;;;;;1.52;1.20;;;28.80;37.60;;;;;;604509;235;26598;-68
2022/07/30 12:40:49;;;;;;;1.60;1.50;;;29.00;37.70;;;;;;604055;235;26601;-69
2022/07/30 12:43:16;;;;;;;2.70;1.20;;;29.30;37.80;;;;;;604212;230;26612;-69
2022/07/30 12:45:44;;;;;;;2.97;1.40;;;29.80;36.60;;;;;;603052;230;26560;-71
2022/07/30 12:48:12;;;;;;;1.55;1.30;;;29.80;36.60;;;;;;602960;237;26800;-69
2022/07/30 12:50:39;;;;;;;2.50;1.40;;;29.80;36.40;;;;;;603982;238;26591;-70